Terminal Aerodrome Forecast
Issued by NWS

Current Version | Previous Version | Graphics & Text | Print | Product List | Glossary Off
Versions: 1 2 3 4 5 6 7 8 9 10 11 12 13

000
FTUS41 KPBZ 040135 AAA
TAFMGW
TAF AMD
KMGW 040135Z 0402/0424 21007KT P6SM VCSH FEW060
     FM041100 29005KT P6SM SKC
     FM041500 29009G15KT P6SM SKC=

USA.gov is the U.S. government's official web portal to all federal, state and local government web resources and services.